createdAt,value
2018-10-02T00:00:28.727Z,5.20
2018-10-02T00:01:32.337Z,5.20
2018-10-02T00:02:36.263Z,5.20
2018-10-02T00:03:40.462Z,5.20
2018-10-02T00:04:43.951Z,5.20
2018-10-02T00:05:47.448Z,5.20
2018-10-02T00:06:50.921Z,5.20
2018-10-02T00:07:54.421Z,5.30
2018-10-02T00:08:57.899Z,5.20
2018-10-02T00:10:01.495Z,5.20
2018-10-02T00:11:10.477Z,5.20
2018-10-02T00:12:19.261Z,5.20
2018-10-02T00:13:55.626Z,5.10
2018-10-02T00:15:09.666Z,5.10
2018-10-02T00:16:13.161Z,5.00
2018-10-02T00:17:16.857Z,5.00
2018-10-02T00:18:20.355Z,5.00
2018-10-02T00:19:23.996Z,5.00
2018-10-02T00:20:27.461Z,4.90
2018-10-02T00:21:30.910Z,4.90
2018-10-02T00:22:34.741Z,4.80
2018-10-02T00:23:38.224Z,4.80
2018-10-02T00:24:42.035Z,4.80
2018-10-02T00:25:45.798Z,4.70
2018-10-02T00:26:50.221Z,4.70
2018-10-02T00:27:53.797Z,4.60
2018-10-02T00:28:57.758Z,4.60
2018-10-02T00:30:01.304Z,4.50
2018-10-02T00:31:05.349Z,4.50
2018-10-02T00:32:08.996Z,4.50
2018-10-02T00:33:12.969Z,4.40
2018-10-02T00:34:16.642Z,4.40
2018-10-02T00:35:20.931Z,4.40
2018-10-02T00:36:25.387Z,4.40
2018-10-02T00:37:28.920Z,4.40
2018-10-02T00:38:35.374Z,4.40
2018-10-02T00:39:39.112Z,4.40
2018-10-02T00:40:42.578Z,4.40
2018-10-02T00:41:46.088Z,4.30
2018-10-02T00:42:49.546Z,4.30
2018-10-02T00:43:53.149Z,4.20
2018-10-02T00:44:56.763Z,4.20
2018-10-02T00:46:00.229Z,4.20
2018-10-02T00:47:03.733Z,4.20
2018-10-02T00:48:07.193Z,4.20
2018-10-02T00:49:10.699Z,4.10
2018-10-02T00:50:14.162Z,4.10
2018-10-02T00:51:17.624Z,4.10
2018-10-02T00:52:21.253Z,4.00
2018-10-02T00:53:25.067Z,4.00
2018-10-02T00:54:28.786Z,4.00
2018-10-02T00:55:32.265Z,4.00
2018-10-02T00:56:35.755Z,4.00
2018-10-02T00:57:39.222Z,4.00
2018-10-02T00:58:42.674Z,4.00
2018-10-02T00:59:46.159Z,4.00
2018-10-02T01:00:49.697Z,4.00
2018-10-02T01:01:53.229Z,4.10
2018-10-02T01:02:56.813Z,4.10
2018-10-02T01:04:00.314Z,4.10
2018-10-02T01:05:03.910Z,4.20
2018-10-02T01:06:07.533Z,4.20
2018-10-02T01:07:11.146Z,4.30
2018-10-02T01:08:14.709Z,4.40
2018-10-02T01:09:18.190Z,4.50
2018-10-02T01:10:21.702Z,4.50
2018-10-02T01:11:25.235Z,4.60
2018-10-02T01:12:28.757Z,4.60
2018-10-02T01:13:32.233Z,4.70
2018-10-02T01:14:35.725Z,4.70
2018-10-02T01:15:39.286Z,4.80
2018-10-02T01:16:42.822Z,4.90
2018-10-02T01:17:46.313Z,4.90
2018-10-02T01:18:49.785Z,5.00
2018-10-02T01:19:53.324Z,5.00
2018-10-02T01:20:56.802Z,5.00
2018-10-02T01:22:00.290Z,5.10
2018-10-02T01:23:03.754Z,5.20
2018-10-02T01:24:07.250Z,5.20
2018-10-02T01:25:10.850Z,5.30
2018-10-02T01:26:14.359Z,5.30
2018-10-02T01:27:17.901Z,5.30
2018-10-02T01:28:21.450Z,5.30
2018-10-02T01:29:24.953Z,5.30
2018-10-02T01:30:28.485Z,5.30
2018-10-02T01:31:31.944Z,5.40
2018-10-02T01:32:35.649Z,5.40
2018-10-02T01:33:39.276Z,5.30
2018-10-02T01:34:42.741Z,5.30
2018-10-02T01:35:46.238Z,5.40
2018-10-02T01:36:49.685Z,5.40
2018-10-02T01:37:53.203Z,5.40
2018-10-02T01:38:56.826Z,5.50
2018-10-02T01:40:00.319Z,5.50
2018-10-02T01:41:03.773Z,5.50
2018-10-02T01:42:07.617Z,5.50
2018-10-02T01:43:11.187Z,5.60
2018-10-02T01:44:14.641Z,5.60
2018-10-02T01:45:18.130Z,5.60
2018-10-02T01:46:21.760Z,5.60
2018-10-02T01:47:25.267Z,5.60
2018-10-02T01:48:28.769Z,5.70
2018-10-02T01:49:32.274Z,5.80
2018-10-02T01:50:35.756Z,5.70
2018-10-02T01:51:39.233Z,5.70
2018-10-02T01:52:42.677Z,5.70
2018-10-02T01:53:46.185Z,5.70
2018-10-02T01:54:49.637Z,5.80
2018-10-02T01:55:53.125Z,5.80
2018-10-02T01:56:56.768Z,5.80
2018-10-02T01:58:00.225Z,5.70
2018-10-02T01:59:03.694Z,5.70
2018-10-02T02:00:07.711Z,5.70
2018-10-02T02:01:11.282Z,5.70
2018-10-02T02:02:14.789Z,5.70
2018-10-02T02:03:18.239Z,5.70
2018-10-02T02:04:21.703Z,5.70
2018-10-02T02:05:25.281Z,5.70
2018-10-02T02:06:28.757Z,5.70
2018-10-02T02:07:32.229Z,5.70
2018-10-02T02:08:35.677Z,5.80
2018-10-02T02:09:39.231Z,5.80
2018-10-02T02:10:42.696Z,5.80
2018-10-02T02:11:46.137Z,5.80
2018-10-02T02:12:49.909Z,5.80
2018-10-02T02:13:53.376Z,5.80
2018-10-02T02:14:56.847Z,5.80
2018-10-02T02:16:00.329Z,5.80
2018-10-02T02:17:03.864Z,5.80
2018-10-02T02:18:07.853Z,5.90
2018-10-02T02:19:11.922Z,5.90
2018-10-02T02:20:15.429Z,5.90
2018-10-02T02:21:18.897Z,5.80
2018-10-02T02:22:22.345Z,5.90
2018-10-02T02:23:25.883Z,6.00
2018-10-02T02:24:29.436Z,6.00
2018-10-02T02:25:32.931Z,6.00
2018-10-02T02:26:36.398Z,6.00
2018-10-02T02:27:39.856Z,6.00
2018-10-02T02:28:43.357Z,6.00
2018-10-02T02:29:46.950Z,6.00
2018-10-02T02:30:50.461Z,6.00
2018-10-02T02:31:53.962Z,6.00
2018-10-02T02:32:57.439Z,6.00
2018-10-02T02:34:01.082Z,6.00
2018-10-02T02:35:04.609Z,6.00
2018-10-02T02:36:08.510Z,6.10
2018-10-02T02:37:12.170Z,6.10
2018-10-02T02:38:15.686Z,6.10
2018-10-02T02:39:19.768Z,6.10
2018-10-02T02:40:23.272Z,6.20
2018-10-02T02:41:26.856Z,6.10
2018-10-02T02:42:30.449Z,6.10
2018-10-02T02:43:33.961Z,6.10
2018-10-02T02:44:37.437Z,6.10
2018-10-02T02:45:40.935Z,6.10
2018-10-02T02:46:44.470Z,6.10
2018-10-02T02:47:55.637Z,6.20
2018-10-02T02:49:08.086Z,6.20
2018-10-02T02:50:17.216Z,6.30
2018-10-02T02:51:37.614Z,6.20
2018-10-02T02:52:44.264Z,6.30
2018-10-02T02:53:47.762Z,6.30
2018-10-02T02:54:51.222Z,6.30
2018-10-02T02:55:54.680Z,6.40
2018-10-02T02:56:58.167Z,6.40
2018-10-02T02:58:01.616Z,6.40
2018-10-02T02:59:05.150Z,6.50
2018-10-02T03:00:08.719Z,6.50
2018-10-02T03:01:13.077Z,6.50
2018-10-02T03:02:16.614Z,6.50
2018-10-02T03:03:20.314Z,6.50
2018-10-02T03:04:23.878Z,6.60
2018-10-02T03:05:27.433Z,6.60
2018-10-02T03:06:30.959Z,6.60
2018-10-02T03:07:34.523Z,6.60
2018-10-02T03:08:38.020Z,6.60
2018-10-02T03:09:41.555Z,6.70
2018-10-02T03:10:45.135Z,6.70
2018-10-02T03:11:48.649Z,6.70
2018-10-02T03:12:52.228Z,6.70
2018-10-02T03:13:55.794Z,6.70
2018-10-02T03:14:59.295Z,6.70
2018-10-02T03:16:02.801Z,6.70
2018-10-02T03:17:06.331Z,6.70
2018-10-02T03:18:10.077Z,6.70
2018-10-02T03:19:13.772Z,6.70
2018-10-02T03:20:17.272Z,6.70
2018-10-02T03:21:21.789Z,6.70
2018-10-02T03:22:25.422Z,6.70
2018-10-02T03:23:29.001Z,6.70
2018-10-02T03:24:32.518Z,6.70
2018-10-02T03:25:36.009Z,6.70
2018-10-02T03:26:39.539Z,6.70
2018-10-02T03:27:43.125Z,6.70
2018-10-02T03:28:46.646Z,6.70
2018-10-02T03:29:50.145Z,6.70
2018-10-02T03:30:53.726Z,6.80
2018-10-02T03:31:57.185Z,6.70
2018-10-02T03:33:00.657Z,6.60
2018-10-02T03:34:04.126Z,6.70
2018-10-02T03:35:07.593Z,6.70
2018-10-02T03:36:11.153Z,6.70
2018-10-02T03:37:14.831Z,6.70
2018-10-02T03:38:18.321Z,6.80
2018-10-02T03:39:22.394Z,6.80
2018-10-02T03:40:25.856Z,6.80
2018-10-02T03:41:29.321Z,6.70
2018-10-02T03:42:32.830Z,6.80
2018-10-02T03:43:36.312Z,6.80
2018-10-02T03:44:39.800Z,6.90
2018-10-02T03:45:43.291Z,6.80
2018-10-02T03:46:46.849Z,6.80
2018-10-02T03:47:50.386Z,6.80
2018-10-02T03:48:53.995Z,6.80
2018-10-02T03:49:57.908Z,6.80
2018-10-02T03:51:01.492Z,6.90
2018-10-02T03:52:05.259Z,6.80
2018-10-02T03:53:08.809Z,6.90
2018-10-02T03:54:12.381Z,6.90
2018-10-02T03:55:15.861Z,7.00
2018-10-02T03:56:19.315Z,7.00
2018-10-02T03:57:22.778Z,7.00
2018-10-02T03:58:26.249Z,7.00
2018-10-02T03:59:29.770Z,7.00
2018-10-02T04:00:33.265Z,7.00
2018-10-02T04:01:36.804Z,7.00
2018-10-02T04:02:40.394Z,7.10
2018-10-02T04:03:44.094Z,7.10
2018-10-02T04:04:47.566Z,7.10
2018-10-02T04:05:51.082Z,7.10
2018-10-02T04:06:54.578Z,7.10
2018-10-02T04:07:58.089Z,7.10
2018-10-02T04:09:01.618Z,7.10
2018-10-02T04:10:05.193Z,7.10
2018-10-02T04:11:08.716Z,7.10
2018-10-02T04:12:12.278Z,7.10
2018-10-02T04:13:15.965Z,7.20
2018-10-02T04:14:19.508Z,7.20
2018-10-02T04:15:23.146Z,7.10
2018-10-02T04:16:26.682Z,7.20
2018-10-02T04:17:30.284Z,7.20
2018-10-02T04:18:33.815Z,7.20
2018-10-02T04:19:37.378Z,7.30
2018-10-02T04:20:40.996Z,7.20
2018-10-02T04:21:44.618Z,7.30
2018-10-02T04:22:48.151Z,7.30
2018-10-02T04:23:51.658Z,7.40
2018-10-02T04:24:55.199Z,7.40
2018-10-02T04:25:58.788Z,7.40
2018-10-02T04:27:02.358Z,7.30
2018-10-02T04:28:06.482Z,7.40
2018-10-02T04:29:10.034Z,7.30
2018-10-02T04:30:13.604Z,7.30
2018-10-02T04:31:17.195Z,7.40
2018-10-02T04:32:20.792Z,7.30
2018-10-02T04:33:24.752Z,7.30
2018-10-02T04:34:28.345Z,7.40
2018-10-02T04:35:31.993Z,7.30
2018-10-02T04:36:35.652Z,7.40
2018-10-02T04:37:39.498Z,7.40
2018-10-02T04:38:43.140Z,7.40
2018-10-02T04:39:47.033Z,7.40
2018-10-02T04:40:50.579Z,7.50
2018-10-02T04:41:54.141Z,7.50
2018-10-02T04:42:57.722Z,7.50
2018-10-02T04:44:01.309Z,7.50
2018-10-02T04:45:05.410Z,7.50
2018-10-02T04:46:08.917Z,7.60
2018-10-02T04:47:13.807Z,7.60
2018-10-02T04:48:17.367Z,7.60
2018-10-02T04:49:21.127Z,7.60
2018-10-02T04:50:25.615Z,7.60
2018-10-02T04:51:29.128Z,7.60
2018-10-02T04:52:32.804Z,7.60
2018-10-02T04:53:36.325Z,7.60
2018-10-02T04:54:39.946Z,7.50
2018-10-02T04:55:43.564Z,7.60
2018-10-02T04:56:47.000Z,7.60
2018-10-02T04:57:50.594Z,7.60
2018-10-02T04:58:54.192Z,7.60
2018-10-02T04:59:57.866Z,7.60
2018-10-02T05:01:01.840Z,7.60
2018-10-02T05:02:05.463Z,7.60
2018-10-02T05:03:08.954Z,7.60
2018-10-02T05:04:13.156Z,7.60
2018-10-02T05:05:16.886Z,7.60
2018-10-02T05:06:21.001Z,7.60
2018-10-02T05:07:25.554Z,7.60
2018-10-02T05:08:29.369Z,7.70
2018-10-02T05:09:33.965Z,7.60
2018-10-02T05:10:38.023Z,7.60
2018-10-02T05:11:41.751Z,7.60
2018-10-02T05:12:45.452Z,7.60
2018-10-02T05:13:49.357Z,7.60
2018-10-02T05:14:54.502Z,7.70
2018-10-02T05:15:58.429Z,7.60
2018-10-02T05:17:02.310Z,7.60
2018-10-02T05:18:06.057Z,7.60
2018-10-02T05:19:13.693Z,7.60
2018-10-02T05:20:17.412Z,7.60
2018-10-02T05:21:21.101Z,7.60
2018-10-02T05:22:25.028Z,7.60
2018-10-02T05:23:28.680Z,7.60
2018-10-02T05:24:32.369Z,7.60
2018-10-02T05:25:35.994Z,7.70
2018-10-02T05:26:39.646Z,7.60
2018-10-02T05:27:43.397Z,7.60
2018-10-02T05:28:46.926Z,7.60
2018-10-02T05:29:50.556Z,7.60
2018-10-02T05:30:54.153Z,7.60
2018-10-02T05:31:58.042Z,7.60
2018-10-02T05:33:01.763Z,7.60
2018-10-02T05:34:05.448Z,7.60
2018-10-02T05:35:09.202Z,7.60
2018-10-02T05:36:15.372Z,7.60
2018-10-02T05:37:18.970Z,7.60
2018-10-02T05:38:22.485Z,7.60
2018-10-02T05:39:26.163Z,7.60
2018-10-02T05:40:29.702Z,7.50
2018-10-02T05:41:33.350Z,7.60
2018-10-02T05:42:36.977Z,7.60
2018-10-02T05:43:40.502Z,7.60
2018-10-02T05:44:44.435Z,7.60
2018-10-02T05:45:49.022Z,7.60
2018-10-02T05:46:52.630Z,7.60
2018-10-02T05:47:56.305Z,7.60
2018-10-02T05:48:59.873Z,7.60
2018-10-02T05:50:03.477Z,7.60
2018-10-02T05:51:07.216Z,7.60
2018-10-02T05:52:11.997Z,7.60
2018-10-02T05:53:15.681Z,7.60
2018-10-02T05:54:19.174Z,7.60
2018-10-02T05:55:22.889Z,7.60
2018-10-02T05:56:26.368Z,7.60
2018-10-02T05:57:30.296Z,7.70
2018-10-02T05:58:33.877Z,7.60
2018-10-02T05:59:37.355Z,7.60
2018-10-02T06:00:40.923Z,7.60
2018-10-02T06:01:44.514Z,7.70
2018-10-02T06:02:48.098Z,7.70
2018-10-02T06:03:59.673Z,7.70
2018-10-02T06:05:03.217Z,7.60
2018-10-02T06:06:06.697Z,7.70
2018-10-02T06:07:11.353Z,7.70
2018-10-02T06:08:15.104Z,7.70
2018-10-02T06:09:18.608Z,7.70
2018-10-02T06:10:22.103Z,7.70
2018-10-02T06:11:25.773Z,7.70
2018-10-02T06:12:29.289Z,7.70
2018-10-02T06:13:32.856Z,7.70
2018-10-02T06:14:36.368Z,7.70
2018-10-02T06:15:39.880Z,7.70
2018-10-02T06:16:43.417Z,7.70
2018-10-02T06:17:46.918Z,7.70
2018-10-02T06:18:50.528Z,7.70
2018-10-02T06:19:53.955Z,7.70
2018-10-02T06:20:57.507Z,7.60
2018-10-02T06:22:01.058Z,7.70
2018-10-02T06:23:04.519Z,7.70
2018-10-02T06:24:08.285Z,7.60
2018-10-02T06:25:16.859Z,7.70
2018-10-02T06:26:20.393Z,7.70
2018-10-02T06:27:24.086Z,7.70
2018-10-02T06:28:27.652Z,7.70
2018-10-02T06:29:32.137Z,7.70
2018-10-02T06:30:35.740Z,7.80
2018-10-02T06:31:39.255Z,7.80
2018-10-02T06:32:42.878Z,7.80
2018-10-02T06:33:46.430Z,7.80
2018-10-02T06:34:49.938Z,7.80
2018-10-02T06:35:53.450Z,7.80
2018-10-02T06:36:58.603Z,7.90
2018-10-02T06:38:03.009Z,7.90
2018-10-02T06:39:08.247Z,7.90
2018-10-02T06:40:14.320Z,7.90
2018-10-02T06:41:18.019Z,7.90
2018-10-02T06:42:21.549Z,7.90
2018-10-02T06:43:25.437Z,7.90
2018-10-02T06:44:29.628Z,7.90
2018-10-02T06:45:33.077Z,7.90
2018-10-02T06:46:36.568Z,7.80
2018-10-02T06:47:40.048Z,7.90
2018-10-02T06:48:43.540Z,7.90
2018-10-02T06:49:47.073Z,7.80
2018-10-02T06:50:50.588Z,7.90
2018-10-02T06:51:54.379Z,7.90
2018-10-02T06:52:57.833Z,7.90
2018-10-02T06:54:01.458Z,7.90
2018-10-02T06:55:05.406Z,7.90
2018-10-02T06:56:08.905Z,7.90
2018-10-02T06:57:13.578Z,7.90
2018-10-02T06:58:17.071Z,7.80
2018-10-02T06:59:20.761Z,7.80
2018-10-02T07:00:24.329Z,7.80
2018-10-02T07:01:27.823Z,7.80
2018-10-02T07:02:31.445Z,7.90
2018-10-02T07:03:34.961Z,7.90
2018-10-02T07:04:38.485Z,7.90
2018-10-02T07:05:42.024Z,7.80
2018-10-02T07:06:45.563Z,7.90
2018-10-02T07:07:49.129Z,7.90
2018-10-02T07:08:52.634Z,8.00
2018-10-02T07:09:56.231Z,8.00
2018-10-02T07:10:59.721Z,7.90
2018-10-02T07:12:03.383Z,8.00
2018-10-02T07:13:07.564Z,8.00
2018-10-02T07:14:13.473Z,8.00
2018-10-02T07:15:17.299Z,8.00
2018-10-02T07:16:21.041Z,8.00
2018-10-02T07:17:25.251Z,8.00
2018-10-02T07:18:28.841Z,8.10
2018-10-02T07:19:32.690Z,8.10
2018-10-02T07:20:36.783Z,8.10
2018-10-02T07:21:40.442Z,8.10
2018-10-02T07:22:43.958Z,8.10
2018-10-02T07:23:47.501Z,8.10
2018-10-02T07:24:50.998Z,8.20
2018-10-02T07:25:54.502Z,8.20
2018-10-02T07:26:58.125Z,8.20
2018-10-02T07:28:02.368Z,8.20
2018-10-02T07:29:06.078Z,8.20
2018-10-02T07:30:10.956Z,8.20
2018-10-02T07:31:15.555Z,8.20
2018-10-02T07:32:19.325Z,8.20
2018-10-02T07:33:22.857Z,8.20
2018-10-02T07:34:26.386Z,8.20
2018-10-02T07:35:29.990Z,8.20
2018-10-02T07:36:33.633Z,8.20
2018-10-02T07:37:37.189Z,8.20
2018-10-02T07:38:40.794Z,8.20
2018-10-02T07:39:44.279Z,8.30
2018-10-02T07:40:47.923Z,8.30
2018-10-02T07:41:51.422Z,8.30
2018-10-02T07:42:55.159Z,8.40
2018-10-02T07:43:58.679Z,8.40
2018-10-02T07:45:03.281Z,8.40
2018-10-02T07:46:06.864Z,8.50
2018-10-02T07:47:12.869Z,8.50
2018-10-02T07:48:16.438Z,8.50
2018-10-02T07:49:20.146Z,8.60
2018-10-02T07:50:23.813Z,8.60
2018-10-02T07:51:27.428Z,8.60
2018-10-02T07:52:30.999Z,8.60
2018-10-02T07:53:34.787Z,8.60
2018-10-02T07:54:38.310Z,8.60
2018-10-02T07:55:42.069Z,8.60
2018-10-02T07:56:45.622Z,8.60
2018-10-02T07:57:49.196Z,8.70
2018-10-02T07:58:52.720Z,8.70
2018-10-02T07:59:56.259Z,8.70
2018-10-02T08:00:59.813Z,8.70
2018-10-02T08:02:03.409Z,8.80
2018-10-02T08:03:07.146Z,8.80
2018-10-02T08:04:11.158Z,8.80
2018-10-02T08:05:14.818Z,8.90
2018-10-02T08:06:18.351Z,8.90
2018-10-02T08:07:22.023Z,8.90
2018-10-02T08:08:25.745Z,8.90
2018-10-02T08:09:29.302Z,8.90
2018-10-02T08:10:32.849Z,8.90
2018-10-02T08:11:36.408Z,8.90
2018-10-02T08:12:40.143Z,9.00
2018-10-02T08:13:43.925Z,9.00
2018-10-02T08:14:47.447Z,9.00
2018-10-02T08:15:51.037Z,9.00
2018-10-02T08:16:54.542Z,9.00
2018-10-02T08:17:58.652Z,9.00
2018-10-02T08:19:02.343Z,9.00
2018-10-02T08:20:06.323Z,9.10
2018-10-02T08:21:10.707Z,9.00
2018-10-02T08:22:15.517Z,9.10
2018-10-02T08:23:19.225Z,9.10
2018-10-02T08:24:22.830Z,9.10
2018-10-02T08:25:27.061Z,9.10
2018-10-02T08:26:30.680Z,9.00
2018-10-02T08:27:34.388Z,9.10
2018-10-02T08:28:38.526Z,9.00
2018-10-02T08:29:42.346Z,9.00
2018-10-02T08:30:46.121Z,9.00
2018-10-02T08:31:49.654Z,9.00
2018-10-02T08:32:53.304Z,9.00
2018-10-02T08:33:57.303Z,9.00
2018-10-02T08:35:00.908Z,9.00
2018-10-02T08:36:04.843Z,9.00
2018-10-02T08:37:08.325Z,9.00
2018-10-02T08:38:13.327Z,9.00
2018-10-02T08:39:16.963Z,9.00
2018-10-02T08:40:20.575Z,9.00
2018-10-02T08:41:24.167Z,9.00
2018-10-02T08:42:27.758Z,9.00
2018-10-02T08:43:31.542Z,9.10
2018-10-02T08:44:35.239Z,9.10
2018-10-02T08:45:38.787Z,9.10
2018-10-02T08:46:42.439Z,9.10
2018-10-02T08:47:46.083Z,9.20
2018-10-02T08:48:49.788Z,9.30
2018-10-02T08:49:53.315Z,9.40
2018-10-02T08:50:56.989Z,9.40
2018-10-02T08:52:00.646Z,9.40
2018-10-02T08:53:04.197Z,9.30
2018-10-02T08:54:07.900Z,9.30
2018-10-02T08:55:13.389Z,9.30
2018-10-02T08:56:16.995Z,9.30
2018-10-02T08:57:20.715Z,9.20
2018-10-02T08:58:24.326Z,9.30
2018-10-02T08:59:28.021Z,9.20
2018-10-02T09:00:31.774Z,9.20
2018-10-02T09:01:35.356Z,9.20
2018-10-02T09:02:38.966Z,9.20
2018-10-02T09:03:42.924Z,9.30
2018-10-02T09:04:47.235Z,9.30
2018-10-02T09:05:51.414Z,9.30
2018-10-02T09:06:55.117Z,9.30
2018-10-02T09:07:58.621Z,9.30
2018-10-02T09:09:02.251Z,9.30
2018-10-02T09:10:05.867Z,9.30
2018-10-02T09:11:10.202Z,9.30
2018-10-02T09:12:15.033Z,9.40
2018-10-02T09:13:18.938Z,9.40
2018-10-02T09:14:22.494Z,9.40
2018-10-02T09:15:26.275Z,9.40
2018-10-02T09:16:29.883Z,9.50
2018-10-02T09:17:35.524Z,9.40
2018-10-02T09:18:39.208Z,9.40
2018-10-02T09:19:42.824Z,9.40
2018-10-02T09:20:46.447Z,9.40
2018-10-02T09:21:50.066Z,9.40
2018-10-02T09:22:53.593Z,9.50
2018-10-02T09:23:57.368Z,9.50
2018-10-02T09:25:01.019Z,9.40
2018-10-02T09:26:05.012Z,9.40
2018-10-02T09:27:08.671Z,9.40
2018-10-02T09:28:14.745Z,9.40
2018-10-02T09:29:20.960Z,9.30
2018-10-02T09:30:31.497Z,9.30
2018-10-02T09:31:40.247Z,9.30
2018-10-02T09:32:48.993Z,9.30
2018-10-02T09:33:57.777Z,9.20
2018-10-02T09:35:06.549Z,9.20
2018-10-02T09:36:15.279Z,9.10
2018-10-02T09:37:24.194Z,9.20
2018-10-02T09:38:33.195Z,9.10
2018-10-02T09:39:42.180Z,9.10
2018-10-02T09:40:50.877Z,9.10
2018-10-02T09:41:59.748Z,9.10
2018-10-02T09:43:08.838Z,9.20
2018-10-02T09:44:13.993Z,9.20
2018-10-02T09:45:17.531Z,9.30
2018-10-02T09:46:21.703Z,9.30
2018-10-02T09:47:25.352Z,9.40
2018-10-02T09:48:29.002Z,9.40
2018-10-02T09:49:32.853Z,9.40
2018-10-02T09:50:36.575Z,9.40
2018-10-02T09:51:40.186Z,9.50
2018-10-02T09:52:43.703Z,9.50
2018-10-02T09:53:47.358Z,9.50
2018-10-02T09:54:51.150Z,9.60
2018-10-02T09:55:54.935Z,9.60
2018-10-02T09:56:58.620Z,9.60
2018-10-02T09:58:02.518Z,9.60
2018-10-02T09:59:06.227Z,9.70
2018-10-02T10:00:14.222Z,9.60
2018-10-02T10:01:22.954Z,9.60
2018-10-02T10:02:32.008Z,9.60
2018-10-02T10:03:35.843Z,9.60
2018-10-02T10:04:39.414Z,9.60
2018-10-02T10:05:43.024Z,9.60
2018-10-02T10:06:46.717Z,9.60
2018-10-02T10:07:50.315Z,9.60
2018-10-02T10:08:53.980Z,9.60
2018-10-02T10:09:57.566Z,9.60
2018-10-02T10:11:01.326Z,9.60
2018-10-02T10:12:05.161Z,9.60
2018-10-02T10:13:09.084Z,9.60
2018-10-02T10:14:14.084Z,9.70
2018-10-02T10:15:17.742Z,9.70
2018-10-02T10:16:21.465Z,9.70
2018-10-02T10:17:25.358Z,9.70
2018-10-02T10:18:28.922Z,9.70
2018-10-02T10:19:32.854Z,9.70
2018-10-02T10:20:36.547Z,9.70
2018-10-02T10:21:40.173Z,9.80
2018-10-02T10:22:43.912Z,9.70
2018-10-02T10:23:47.421Z,9.80
2018-10-02T10:24:51.037Z,9.70
2018-10-02T10:25:54.574Z,9.80
2018-10-02T10:26:58.294Z,10.00
2018-10-02T10:28:01.931Z,9.70
2018-10-02T10:29:05.967Z,9.80
2018-10-02T10:30:09.485Z,9.90
2018-10-02T10:31:14.677Z,9.90
2018-10-02T10:32:18.395Z,9.90
2018-10-02T10:33:22.232Z,9.90
2018-10-02T10:34:25.808Z,10.00
2018-10-02T10:35:29.490Z,9.90
2018-10-02T10:36:33.225Z,9.90
2018-10-02T10:37:37.078Z,9.90
2018-10-02T10:38:40.713Z,9.90
2018-10-02T10:39:44.419Z,9.90
2018-10-02T10:40:48.075Z,9.90
2018-10-02T10:41:51.708Z,9.90
2018-10-02T10:42:55.293Z,9.90
2018-10-02T10:43:58.963Z,9.80
2018-10-02T10:45:02.529Z,9.80
2018-10-02T10:46:06.165Z,9.80
2018-10-02T10:47:11.045Z,9.80
2018-10-02T10:48:15.517Z,9.80
2018-10-02T10:49:19.163Z,9.80
2018-10-02T10:50:22.739Z,9.90
2018-10-02T10:51:26.405Z,9.90
2018-10-02T10:52:30.097Z,9.90
2018-10-02T10:53:33.925Z,9.90
2018-10-02T10:54:37.630Z,9.90
2018-10-02T10:55:41.212Z,9.90
2018-10-02T10:56:44.860Z,9.80
2018-10-02T10:57:48.793Z,9.80
2018-10-02T10:58:52.460Z,9.80
2018-10-02T10:59:56.236Z,9.80
2018-10-02T11:00:59.778Z,9.80
2018-10-02T11:02:03.608Z,9.80
2018-10-02T11:03:07.444Z,9.80
2018-10-02T11:04:12.572Z,9.90
2018-10-02T11:05:16.384Z,9.90
2018-10-02T11:06:20.005Z,10.00
2018-10-02T11:07:23.900Z,10.00
2018-10-02T11:08:27.574Z,10.00
2018-10-02T11:09:31.300Z,10.00
2018-10-02T11:10:35.039Z,10.00
2018-10-02T11:11:38.689Z,9.90
2018-10-02T11:12:42.350Z,10.00
2018-10-02T11:13:45.983Z,10.00
2018-10-02T11:14:49.764Z,10.00
2018-10-02T11:15:53.305Z,10.00
2018-10-02T11:16:56.878Z,10.00
2018-10-02T11:18:00.745Z,10.00
2018-10-02T11:19:04.589Z,10.10
2018-10-02T11:20:09.080Z,10.10
2018-10-02T11:21:14.722Z,10.20
2018-10-02T11:22:18.416Z,10.10
2018-10-02T11:23:22.829Z,10.10
2018-10-02T11:24:27.019Z,10.10
2018-10-02T11:25:30.781Z,10.00
2018-10-02T11:26:34.361Z,10.00
2018-10-02T11:27:38.100Z,10.10
2018-10-02T11:28:41.699Z,10.00
2018-10-02T11:29:45.347Z,10.00
2018-10-02T11:30:48.854Z,10.00
2018-10-02T11:31:52.374Z,10.00
2018-10-02T11:32:56.020Z,10.00
2018-10-02T11:33:59.560Z,10.10
2018-10-02T11:35:03.748Z,10.10
2018-10-02T11:36:07.276Z,10.20
2018-10-02T11:37:11.664Z,10.20
2018-10-02T11:38:15.486Z,10.20
2018-10-02T11:39:19.115Z,10.30
2018-10-02T11:40:22.705Z,10.30
2018-10-02T11:41:26.369Z,10.30
2018-10-02T11:42:30.064Z,10.40
2018-10-02T11:43:33.967Z,10.40
2018-10-02T11:44:37.968Z,10.40
2018-10-02T11:45:41.583Z,10.40
2018-10-02T11:46:45.213Z,10.50
2018-10-02T11:47:48.973Z,10.50
2018-10-02T11:48:52.705Z,10.50
2018-10-02T11:49:56.592Z,10.50
2018-10-02T11:51:00.395Z,10.50
2018-10-02T11:52:04.059Z,10.60
2018-10-02T11:53:07.922Z,10.60
2018-10-02T11:54:12.412Z,10.60
2018-10-02T11:55:16.098Z,10.60
2018-10-02T11:56:19.767Z,10.70
2018-10-02T11:57:23.525Z,10.80
2018-10-02T11:58:27.232Z,10.90
2018-10-02T11:59:30.958Z,11.00
2018-10-02T12:00:34.613Z,11.00
2018-10-02T12:01:38.193Z,11.00
2018-10-02T12:02:41.828Z,11.00
2018-10-02T12:03:45.559Z,11.00
2018-10-02T12:04:49.116Z,11.00
2018-10-02T12:05:52.699Z,11.00
2018-10-02T12:06:56.482Z,11.00
2018-10-02T12:08:00.261Z,10.90
2018-10-02T12:09:05.283Z,10.90
2018-10-02T12:10:09.153Z,10.90
2018-10-02T12:11:15.802Z,10.90
2018-10-02T12:12:20.032Z,10.90
2018-10-02T12:13:23.581Z,10.80
2018-10-02T12:14:27.298Z,10.80
2018-10-02T12:15:30.797Z,10.90
2018-10-02T12:16:34.316Z,10.90
2018-10-02T12:17:38.107Z,10.90
2018-10-02T12:18:42.104Z,10.90
2018-10-02T12:19:46.036Z,10.90
2018-10-02T12:20:49.387Z,10.90
2018-10-02T12:21:53.843Z,10.80
2018-10-02T12:22:57.947Z,10.80
2018-10-02T12:24:01.475Z,10.80
2018-10-02T12:25:05.996Z,10.90
2018-10-02T12:26:09.901Z,10.90
2018-10-02T12:27:15.138Z,11.00
2018-10-02T12:28:19.889Z,11.10
2018-10-02T12:29:23.619Z,11.10
2018-10-02T12:30:28.976Z,11.20
2018-10-02T12:31:33.396Z,11.20
2018-10-02T12:32:37.281Z,11.20
2018-10-02T12:33:42.092Z,11.20
2018-10-02T12:34:57.725Z,11.20
2018-10-02T12:36:04.013Z,11.30
2018-10-02T12:37:08.170Z,11.40
2018-10-02T12:38:12.699Z,11.40
2018-10-02T12:39:18.442Z,11.50
2018-10-02T12:40:23.422Z,11.50
2018-10-02T12:41:27.002Z,11.60
2018-10-02T12:42:30.506Z,11.70
2018-10-02T12:43:34.247Z,11.80
2018-10-02T12:44:38.548Z,11.90
2018-10-02T12:45:43.245Z,11.90
2018-10-02T12:46:47.035Z,11.90
2018-10-02T12:47:51.029Z,11.90
2018-10-02T12:48:55.112Z,12.00
2018-10-02T12:49:59.147Z,11.90
2018-10-02T12:51:02.820Z,11.90
2018-10-02T12:52:08.463Z,11.90
2018-10-02T12:53:13.389Z,11.90
2018-10-02T12:54:17.445Z,11.90
2018-10-02T12:55:21.143Z,12.00
2018-10-02T12:56:24.689Z,12.00
2018-10-02T12:57:30.573Z,12.00
2018-10-02T12:58:43.787Z,12.00
2018-10-02T12:59:47.483Z,12.00
2018-10-02T13:00:51.040Z,12.00
2018-10-02T13:01:54.718Z,12.00
2018-10-02T13:02:58.260Z,12.00
2018-10-02T13:04:01.793Z,12.00
2018-10-02T13:05:05.879Z,12.00
2018-10-02T13:06:09.645Z,12.00
2018-10-02T13:07:19.133Z,12.00
2018-10-02T13:08:22.780Z,12.00
2018-10-02T13:09:26.544Z,12.00
2018-10-02T13:10:30.134Z,12.10
2018-10-02T13:11:33.723Z,12.00
2018-10-02T13:12:37.320Z,12.00
2018-10-02T13:13:40.876Z,12.00
2018-10-02T13:14:44.434Z,11.90
2018-10-02T13:15:48.028Z,11.90
2018-10-02T13:16:51.621Z,11.90
2018-10-02T13:17:55.161Z,11.90
2018-10-02T13:18:58.896Z,11.90
2018-10-02T13:20:02.703Z,12.00
2018-10-02T13:21:06.414Z,12.00
2018-10-02T13:22:10.976Z,12.00
2018-10-02T13:23:23.465Z,12.00
2018-10-02T13:24:27.063Z,12.00
2018-10-02T13:25:30.645Z,12.10
2018-10-02T13:26:34.174Z,12.20
2018-10-02T13:27:37.926Z,12.20
2018-10-02T13:28:41.560Z,12.30
2018-10-02T13:29:45.159Z,12.40
2018-10-02T13:30:48.656Z,12.40
2018-10-02T13:31:52.237Z,12.60
2018-10-02T13:32:55.790Z,12.60
2018-10-02T13:33:59.409Z,12.60
2018-10-02T13:35:03.044Z,12.60
2018-10-02T13:36:06.900Z,12.60
2018-10-02T13:37:10.859Z,12.60
2018-10-02T13:38:17.057Z,12.60
2018-10-02T13:39:20.752Z,12.60
2018-10-02T13:40:25.583Z,12.70
2018-10-02T13:41:29.135Z,12.80
2018-10-02T13:42:32.690Z,12.80
2018-10-02T13:43:36.554Z,12.90
2018-10-02T13:44:40.158Z,13.00
2018-10-02T13:45:43.793Z,13.00
2018-10-02T13:46:47.308Z,13.10
2018-10-02T13:47:50.959Z,13.20
2018-10-02T13:53:26.032Z,13.40
2018-10-02T13:55:13.832Z,13.50
2018-10-02T14:04:14.055Z,13.30
2018-10-02T14:05:57.123Z,13.30
2018-10-02T14:09:19.180Z,13.20
2018-10-02T14:15:32.838Z,13.10
2018-10-02T14:16:36.493Z,13.10
2018-10-02T14:17:40.123Z,13.10
2018-10-02T14:18:43.732Z,13.20
2018-10-02T14:19:47.359Z,13.30
2018-10-02T14:20:50.949Z,13.40
2018-10-02T14:21:54.495Z,13.50
2018-10-02T14:22:58.078Z,13.60
2018-10-02T14:24:01.685Z,13.70
2018-10-02T14:25:06.225Z,13.80
2018-10-02T14:26:14.536Z,13.90
2018-10-02T14:27:18.042Z,14.00